createdAt,value
2018-12-25T00:02:16.520Z,9.53
2018-12-25T00:04:45.306Z,10.37
2018-12-25T00:07:14.091Z,10.03
2018-12-25T00:09:43.165Z,10.03
2018-12-25T00:12:11.947Z,10.87
2018-12-25T00:14:40.727Z,11.17
2018-12-25T00:17:09.809Z,10.77
2018-12-25T00:19:38.590Z,10.93
2018-12-25T00:22:07.523Z,19.47
2018-12-25T00:24:36.306Z,9.67
2018-12-25T00:27:05.102Z,8.60
2018-12-25T00:29:33.886Z,8.60
2018-12-25T00:32:02.699Z,8.83
2018-12-25T00:34:31.760Z,8.77
2018-12-25T00:37:00.538Z,8.40
2018-12-25T00:39:29.313Z,7.97
2018-12-25T00:41:58.077Z,8.30
2018-12-25T00:44:26.867Z,8.20
2018-12-25T00:46:55.662Z,8.30
2018-12-25T00:49:24.461Z,8.13
2018-12-25T00:51:53.562Z,8.47
2018-12-25T00:54:22.345Z,9.43
2018-12-25T00:56:51.125Z,13.10
2018-12-25T00:59:19.905Z,9.57
2018-12-25T01:01:48.723Z,9.43
2018-12-25T01:04:17.597Z,10.07
2018-12-25T01:06:46.371Z,9.90
2018-12-25T01:09:15.230Z,9.93
2018-12-25T01:11:44.009Z,9.63
2018-12-25T01:14:13.049Z,9.57
2018-12-25T01:16:41.817Z,9.67
2018-12-25T01:19:10.869Z,8.60
2018-12-25T01:21:39.945Z,8.50
2018-12-25T01:24:08.780Z,8.27
2018-12-25T01:26:37.558Z,8.67
2018-12-25T01:29:06.457Z,7.70
2018-12-25T01:31:35.231Z,9.00
2018-12-25T01:34:04.286Z,8.33
2018-12-25T01:36:33.073Z,9.13
2018-12-25T01:39:01.894Z,7.60
2018-12-25T01:41:30.683Z,8.93
2018-12-25T01:43:59.445Z,9.87
2018-12-25T01:46:28.235Z,8.60
2018-12-25T01:48:57.009Z,9.47
2018-12-25T01:51:25.803Z,9.00
2018-12-25T01:53:54.579Z,8.50
2018-12-25T01:56:23.361Z,8.80
2018-12-25T01:58:52.150Z,8.93
2018-12-25T02:01:21.018Z,9.03
2018-12-25T02:03:49.801Z,8.73
2018-12-25T02:06:18.588Z,8.67
2018-12-25T02:08:47.370Z,9.50
2018-12-25T02:11:16.258Z,9.43
2018-12-25T02:13:45.074Z,9.50
2018-12-25T02:16:13.862Z,9.93
2018-12-25T02:18:42.643Z,9.37
2018-12-25T02:21:11.433Z,9.57
2018-12-25T02:23:40.226Z,8.37
2018-12-25T02:26:09.039Z,9.80
2018-12-25T02:28:37.810Z,9.00
2018-12-25T02:31:06.979Z,9.30
2018-12-25T02:33:35.752Z,9.53
2018-12-25T02:36:04.546Z,9.40
2018-12-25T02:38:33.684Z,9.43
2018-12-25T02:41:02.466Z,8.70
2018-12-25T02:43:31.238Z,9.40
2018-12-25T02:46:00.027Z,9.50
2018-12-25T02:48:28.802Z,8.53
2018-12-25T02:50:57.582Z,9.33
2018-12-25T02:53:26.354Z,8.33
2018-12-25T02:55:55.163Z,8.53
2018-12-25T02:58:23.973Z,8.10
2018-12-25T03:00:52.755Z,8.77
2018-12-25T03:03:21.913Z,8.90
2018-12-25T03:05:51.076Z,8.33
2018-12-25T03:08:20.164Z,8.10
2018-12-25T03:10:48.934Z,9.10
2018-12-25T03:13:17.973Z,8.73
2018-12-25T03:15:46.741Z,8.00
2018-12-25T03:18:15.780Z,9.10
2018-12-25T03:20:44.552Z,9.10
2018-12-25T03:23:13.341Z,9.10
2018-12-25T03:25:42.109Z,8.90
2018-12-25T03:28:10.894Z,8.50
2018-12-25T03:30:39.666Z,8.53
2018-12-25T03:33:08.455Z,8.87
2018-12-25T03:35:37.871Z,8.97
2018-12-25T03:38:07.035Z,9.73
2018-12-25T03:40:35.871Z,9.10
2018-12-25T03:43:04.684Z,9.57
2018-12-25T03:45:33.479Z,8.80
2018-12-25T03:48:02.634Z,9.00
2018-12-25T03:50:31.732Z,8.90
2018-12-25T03:53:00.847Z,9.83
2018-12-25T03:55:29.618Z,8.67
2018-12-25T03:57:58.389Z,8.13
2018-12-25T04:00:27.186Z,9.73
2018-12-25T04:02:55.963Z,8.83
2018-12-25T04:05:24.749Z,9.33
2018-12-25T04:07:53.520Z,9.57
2018-12-25T04:10:22.301Z,9.50
2018-12-25T04:12:51.076Z,8.07
2018-12-25T04:15:20.115Z,9.87
2018-12-25T04:17:48.894Z,9.20
2018-12-25T04:20:19.947Z,9.80
2018-12-25T04:22:48.451Z,9.70
2018-12-25T04:25:17.233Z,9.60
2018-12-25T04:27:46.001Z,9.27
2018-12-25T04:30:14.815Z,9.43
2018-12-25T04:32:43.603Z,10.10
2018-12-25T04:35:12.392Z,10.30
2018-12-25T04:37:41.169Z,10.73
2018-12-25T04:40:09.963Z,12.00
2018-12-25T04:42:38.823Z,9.13
2018-12-25T04:45:08.097Z,9.67
2018-12-25T04:47:36.870Z,9.83
2018-12-25T04:50:05.823Z,9.20
2018-12-25T04:52:34.688Z,9.60
2018-12-25T04:55:03.812Z,10.70
2018-12-25T04:57:32.610Z,9.40
2018-12-25T05:00:01.663Z,9.63
2018-12-25T05:02:30.482Z,10.27
2018-12-25T05:04:59.292Z,9.27
2018-12-25T05:07:28.149Z,10.90
2018-12-25T05:09:56.992Z,10.53
2018-12-25T05:12:25.851Z,10.03
2018-12-25T05:14:54.930Z,9.10
2018-12-25T05:17:23.730Z,8.80
2018-12-25T05:19:52.693Z,9.80
2018-12-25T05:22:21.503Z,9.70
2018-12-25T05:24:50.365Z,9.57
2018-12-25T05:27:19.180Z,8.80
2018-12-25T05:29:48.046Z,10.10
2018-12-25T05:32:16.834Z,9.17
2018-12-25T05:34:45.625Z,9.50
2018-12-25T05:37:14.424Z,8.73
2018-12-25T05:39:43.318Z,8.57
2018-12-25T05:42:12.177Z,8.23
2018-12-25T05:44:43.426Z,9.97
2018-12-25T05:47:12.076Z,9.13
2018-12-25T05:49:40.858Z,8.83
2018-12-25T05:52:09.918Z,8.87
2018-12-25T05:54:38.828Z,9.30
2018-12-25T05:57:07.849Z,11.60
2018-12-25T05:59:37.098Z,10.30
2018-12-25T06:02:06.218Z,9.80
2018-12-25T06:04:35.017Z,10.27
2018-12-25T06:07:03.848Z,9.10
2018-12-25T06:09:32.800Z,10.00
2018-12-25T06:12:01.582Z,8.60
2018-12-25T06:14:30.368Z,9.73
2018-12-25T06:16:59.151Z,10.87
2018-12-25T06:19:27.928Z,9.47
2018-12-25T06:21:56.781Z,10.10
2018-12-25T06:24:25.583Z,10.93
2018-12-25T06:26:54.963Z,10.13
2018-12-25T06:29:24.510Z,10.07
2018-12-25T06:31:53.270Z,8.70
2018-12-25T06:34:22.338Z,9.13
2018-12-25T06:36:51.194Z,10.23
2018-12-25T06:39:19.978Z,22.87
2018-12-25T06:41:48.822Z,8.43
2018-12-25T06:44:17.610Z,9.90
2018-12-25T06:46:46.390Z,10.20
2018-12-25T06:49:15.481Z,9.53
2018-12-25T06:51:44.258Z,9.70
2018-12-25T06:54:13.361Z,10.43
2018-12-25T06:56:42.286Z,10.43
2018-12-25T06:59:11.065Z,9.53
2018-12-25T07:01:39.845Z,9.93
2018-12-25T07:04:08.637Z,10.20
2018-12-25T07:06:37.413Z,10.57
2018-12-25T07:09:07.181Z,10.23
2018-12-25T07:11:36.067Z,9.63
2018-12-25T07:14:04.924Z,9.43
2018-12-25T07:16:34.339Z,9.10
2018-12-25T07:19:03.110Z,9.33
2018-12-25T07:21:32.222Z,9.60
2018-12-25T07:24:00.997Z,9.23
2018-12-25T07:26:29.776Z,10.23
2018-12-25T07:28:58.833Z,8.70
2018-12-25T07:31:27.708Z,9.80
2018-12-25T07:33:56.494Z,8.70
2018-12-25T07:36:25.257Z,8.83
2018-12-25T07:38:54.042Z,10.83
2018-12-25T07:41:22.838Z,10.87
2018-12-25T07:43:51.613Z,10.97
2018-12-25T07:46:20.393Z,11.10
2018-12-25T07:48:49.169Z,10.23
2018-12-25T07:51:20.875Z,10.07
2018-12-25T07:53:49.051Z,10.80
2018-12-25T07:56:18.076Z,11.67
2018-12-25T07:58:47.111Z,12.23
2018-12-25T08:01:15.918Z,11.63
2018-12-25T08:03:44.710Z,10.87
2018-12-25T08:06:13.588Z,13.40
2018-12-25T08:08:42.688Z,9.83
2018-12-25T08:11:11.740Z,10.17
2018-12-25T08:13:40.555Z,9.80
2018-12-25T08:16:09.472Z,12.33
2018-12-25T08:18:40.260Z,11.37
2018-12-25T08:21:09.193Z,11.43
2018-12-25T08:23:38.016Z,11.20
2018-12-25T08:26:06.839Z,10.57
2018-12-25T08:28:35.678Z,10.17
2018-12-25T08:31:04.631Z,11.83
2018-12-25T08:33:33.481Z,13.37
2018-12-25T08:36:02.363Z,12.40
2018-12-25T08:38:31.255Z,11.20
2018-12-25T08:41:00.142Z,11.73
2018-12-25T08:43:29.063Z,12.53
2018-12-25T08:45:57.851Z,11.13
2018-12-25T08:48:26.654Z,11.37
2018-12-25T08:50:55.509Z,11.40
2018-12-25T08:53:24.382Z,12.53
2018-12-25T08:55:53.247Z,11.10
2018-12-25T08:58:22.068Z,9.97
2018-12-25T09:00:50.843Z,10.77
2018-12-25T09:03:19.782Z,11.67
2018-12-25T09:05:48.873Z,10.90
2018-12-25T09:08:17.657Z,11.60
2018-12-25T09:10:46.446Z,11.10
2018-12-25T09:13:15.569Z,10.50
2018-12-25T09:15:44.587Z,10.43
2018-12-25T09:18:13.385Z,9.93
2018-12-25T09:20:42.209Z,10.73
2018-12-25T09:23:11.081Z,11.57
2018-12-25T09:25:39.870Z,14.03
2018-12-25T09:28:08.613Z,13.83
2018-12-25T09:30:37.482Z,12.17
2018-12-25T09:33:06.258Z,13.10
2018-12-25T09:35:35.188Z,11.13
2018-12-25T09:38:04.106Z,11.00
2018-12-25T09:40:32.902Z,11.10
2018-12-25T09:43:01.676Z,10.60
2018-12-25T09:45:30.542Z,12.27
2018-12-25T09:47:59.325Z,12.00
2018-12-25T09:50:28.402Z,11.33
2018-12-25T09:52:57.171Z,10.60
2018-12-25T09:55:25.966Z,10.77
2018-12-25T09:57:55.038Z,11.63
2018-12-25T10:00:23.818Z,11.10
2018-12-25T10:02:52.602Z,10.73
2018-12-25T10:05:21.382Z,10.87
2018-12-25T10:07:50.148Z,13.57
2018-12-25T10:10:19.021Z,11.17
2018-12-25T10:12:47.786Z,11.07
2018-12-25T10:15:16.562Z,11.00
2018-12-25T10:17:45.354Z,10.23
2018-12-25T10:20:14.134Z,11.63
2018-12-25T10:22:42.908Z,11.30
2018-12-25T10:25:11.689Z,11.03
2018-12-25T10:27:40.469Z,9.40
2018-12-25T10:30:09.405Z,10.27
2018-12-25T10:32:38.221Z,13.77
2018-12-25T10:35:07.436Z,16.43
2018-12-25T10:37:36.213Z,11.70
2018-12-25T10:40:05.220Z,12.70
2018-12-25T10:42:34.069Z,10.67
2018-12-25T10:45:03.180Z,10.43
2018-12-25T10:47:32.237Z,10.97
2018-12-25T10:50:01.205Z,10.80
2018-12-25T10:52:30.742Z,10.57
2018-12-25T10:54:59.728Z,11.00
2018-12-25T10:57:28.714Z,10.27
2018-12-25T10:59:57.596Z,10.70
2018-12-25T11:02:26.706Z,11.03
2018-12-25T11:04:55.547Z,11.30
2018-12-25T11:07:24.506Z,11.77
2018-12-25T11:09:53.857Z,10.53
2018-12-25T11:12:23.951Z,10.73
2018-12-25T11:14:52.913Z,11.43
2018-12-25T11:17:21.868Z,11.13
2018-12-25T11:19:50.756Z,12.67
2018-12-25T11:22:20.190Z,12.67
2018-12-25T11:24:49.336Z,11.80
2018-12-25T11:27:18.395Z,12.73
2018-12-25T11:29:47.193Z,11.57
2018-12-25T11:32:16.257Z,12.93
2018-12-25T11:34:45.142Z,12.03
2018-12-25T11:37:13.910Z,12.13
2018-12-25T11:39:42.689Z,12.27
2018-12-25T11:42:11.470Z,13.23
2018-12-25T11:44:40.258Z,11.80
2018-12-25T11:47:09.027Z,11.37
2018-12-25T11:49:37.818Z,12.43
2018-12-25T11:52:06.626Z,13.77
2018-12-25T11:54:35.496Z,17.33
2018-12-25T11:57:04.333Z,12.87
2018-12-25T11:59:33.425Z,12.77
2018-12-25T12:02:02.537Z,13.03
2018-12-25T12:04:31.353Z,12.40
2018-12-25T12:07:00.146Z,13.40
2018-12-25T12:09:28.909Z,11.87
2018-12-25T12:11:57.695Z,12.37
2018-12-25T12:14:26.468Z,13.73
2018-12-25T12:16:55.245Z,14.13
2018-12-25T12:19:24.022Z,13.93
2018-12-25T12:21:52.810Z,13.43
2018-12-25T12:24:21.610Z,13.87
2018-12-25T12:26:50.386Z,12.83
2018-12-25T12:29:19.481Z,16.07
2018-12-25T12:31:48.268Z,15.93
2018-12-25T12:34:17.378Z,17.73
2018-12-25T12:36:46.156Z,13.67
2018-12-25T12:39:14.926Z,13.43
2018-12-25T12:41:43.730Z,14.33
2018-12-25T12:44:12.661Z,13.70
2018-12-25T12:46:41.510Z,13.90
2018-12-25T12:49:10.292Z,14.47
2018-12-25T12:51:39.077Z,14.77
2018-12-25T12:54:08.171Z,13.20
2018-12-25T12:56:36.933Z,13.90
2018-12-25T12:59:05.798Z,14.03
2018-12-25T13:01:34.576Z,13.13
2018-12-25T13:04:03.366Z,13.53
2018-12-25T13:06:32.142Z,14.20
2018-12-25T13:09:00.932Z,14.00
2018-12-25T13:11:29.708Z,12.87
2018-12-25T13:13:58.497Z,16.80
2018-12-25T13:16:27.273Z,28.03
2018-12-25T13:18:56.065Z,15.70
2018-12-25T13:21:24.857Z,16.30
2018-12-25T13:23:54.064Z,14.47
2018-12-25T13:26:22.872Z,14.57
2018-12-25T13:28:51.749Z,16.87
2018-12-25T13:31:20.559Z,20.27
2018-12-25T13:33:49.371Z,18.90
2018-12-25T13:36:18.140Z,15.90
2018-12-25T13:38:46.977Z,25.97
2018-12-25T13:41:15.754Z,23.80
2018-12-25T13:43:44.548Z,25.57
2018-12-25T13:46:13.351Z,16.60
2018-12-25T13:48:42.126Z,14.67
2018-12-25T13:51:10.912Z,17.43
2018-12-25T13:53:39.693Z,15.73
2018-12-25T13:56:08.558Z,14.60
2018-12-25T13:58:37.339Z,16.83
2018-12-25T14:01:06.130Z,17.27
2018-12-25T14:03:34.920Z,18.10
2018-12-25T14:06:03.798Z,17.83
2018-12-25T14:08:32.969Z,19.00
2018-12-25T14:11:01.784Z,17.27
2018-12-25T14:13:30.575Z,16.67
2018-12-25T14:15:59.349Z,15.50
2018-12-25T14:18:28.122Z,16.23
2018-12-25T14:20:56.914Z,14.83
2018-12-25T14:23:26.001Z,15.77
2018-12-25T14:25:54.797Z,15.50
2018-12-25T14:28:23.574Z,16.17
2018-12-25T14:30:52.664Z,14.53
2018-12-25T14:33:21.464Z,15.10
2018-12-25T14:35:50.262Z,15.03
2018-12-25T14:38:19.042Z,16.10
2018-12-25T14:40:47.846Z,13.80
2018-12-25T14:43:16.626Z,16.63
2018-12-25T14:45:45.806Z,16.50
2018-12-25T14:48:14.581Z,14.97
2018-12-25T14:50:43.369Z,15.47
2018-12-25T14:53:19.552Z,15.57
2018-12-25T14:55:43.999Z,16.33
2018-12-25T14:58:12.874Z,15.60
2018-12-25T15:00:41.677Z,15.20
2018-12-25T15:03:10.518Z,18.03
2018-12-25T15:05:39.324Z,15.13
2018-12-25T15:08:08.167Z,19.50
2018-12-25T15:10:36.979Z,16.60
2018-12-25T15:13:05.795Z,16.70
2018-12-25T15:15:34.784Z,14.17
2018-12-25T15:18:03.574Z,14.80
2018-12-25T15:20:32.346Z,16.80
2018-12-25T15:23:01.143Z,15.77
2018-12-25T15:25:30.011Z,19.43
2018-12-25T15:27:58.881Z,21.40
2018-12-25T15:30:27.654Z,22.20
2018-12-25T15:32:56.597Z,19.93
2018-12-25T15:35:25.358Z,21.83
2018-12-25T15:37:54.175Z,18.80
2018-12-25T15:40:22.958Z,19.77
2018-12-25T15:42:51.751Z,21.37
2018-12-25T15:45:20.516Z,17.50
2018-12-25T15:47:49.381Z,15.37
2018-12-25T15:50:18.225Z,22.67
2018-12-25T15:52:47.175Z,20.07
2018-12-25T15:55:16.016Z,18.47
2018-12-25T15:57:45.050Z,18.83
2018-12-25T16:00:16.556Z,16.60
2018-12-25T16:02:45.366Z,18.47
2018-12-25T16:05:14.214Z,20.93
2018-12-25T16:07:43.025Z,34.07
2018-12-25T16:10:11.793Z,22.87
2018-12-25T16:12:40.569Z,23.47
2018-12-25T16:15:09.382Z,18.67
2018-12-25T16:17:38.241Z,19.50
2018-12-25T16:20:10.050Z,18.47
2018-12-25T16:22:39.184Z,17.93
2018-12-25T16:25:08.050Z,18.87
2018-12-25T16:27:36.853Z,18.20
2018-12-25T16:30:07.799Z,17.60
2018-12-25T16:32:36.785Z,19.40
2018-12-25T16:35:06.538Z,18.10
2018-12-25T16:37:35.395Z,18.83
2018-12-25T16:40:04.608Z,18.77
2018-12-25T16:42:33.494Z,18.47
2018-12-25T16:45:02.273Z,19.57
2018-12-25T16:47:31.118Z,24.20
2018-12-25T16:49:59.914Z,20.00
2018-12-25T16:52:28.700Z,26.37
2018-12-25T16:54:57.557Z,24.07
2018-12-25T16:57:26.342Z,27.00
2018-12-25T16:59:55.153Z,23.13
2018-12-25T17:02:25.122Z,28.13
2018-12-25T17:04:53.901Z,21.77
2018-12-25T17:07:22.685Z,18.80
2018-12-25T17:09:51.764Z,30.90
2018-12-25T17:12:20.537Z,20.93
2018-12-25T17:14:49.406Z,21.17
2018-12-25T17:17:18.184Z,24.27
2018-12-25T17:19:47.261Z,18.93
2018-12-25T17:22:16.054Z,17.10
2018-12-25T17:24:44.845Z,19.97
2018-12-25T17:27:13.907Z,17.20
2018-12-25T17:29:42.722Z,18.20
2018-12-25T17:32:11.797Z,18.87
2018-12-25T17:34:40.887Z,18.03
2018-12-25T17:37:09.665Z,15.97
2018-12-25T17:39:38.445Z,15.60
2018-12-25T17:42:07.381Z,15.80
2018-12-25T17:44:36.186Z,16.53
2018-12-25T17:47:05.141Z,15.87
2018-12-25T17:49:33.946Z,16.43
2018-12-25T17:52:02.726Z,19.37
2018-12-25T17:54:31.594Z,17.67
2018-12-25T17:57:00.664Z,16.97
2018-12-25T17:59:29.467Z,18.87
2018-12-25T18:01:58.245Z,18.57
2018-12-25T18:04:27.056Z,18.83
2018-12-25T18:06:56.270Z,20.10
2018-12-25T18:09:25.067Z,19.20
2018-12-25T18:11:53.846Z,17.70
2018-12-25T18:14:22.948Z,18.53
2018-12-25T18:16:51.989Z,28.30
2018-12-25T18:19:20.769Z,36.40
2018-12-25T18:21:49.542Z,32.50
2018-12-25T18:24:19.448Z,31.53
2018-12-25T18:26:50.906Z,25.63
2018-12-25T18:29:19.690Z,22.37
2018-12-25T18:31:48.500Z,27.73
2018-12-25T18:34:17.529Z,24.27
2018-12-25T18:36:46.290Z,24.20
2018-12-25T18:39:15.087Z,19.33
2018-12-25T18:41:43.870Z,21.03
2018-12-25T18:44:12.666Z,19.33
2018-12-25T18:46:41.445Z,20.00
2018-12-25T18:49:10.228Z,19.27
2018-12-25T18:51:39.038Z,17.13
2018-12-25T18:54:07.850Z,18.47
2018-12-25T18:56:36.655Z,18.37
2018-12-25T18:59:05.805Z,19.40
2018-12-25T19:01:34.898Z,19.43
2018-12-25T19:04:03.680Z,19.97
2018-12-25T19:06:33.629Z,18.77
2018-12-25T19:09:08.491Z,17.97
2018-12-25T19:11:37.717Z,19.97
2018-12-25T19:14:06.526Z,18.83
2018-12-25T19:16:35.661Z,18.93
2018-12-25T19:19:04.553Z,18.40
2018-12-25T19:21:33.666Z,19.10
2018-12-25T19:24:02.678Z,17.93
2018-12-25T19:26:31.865Z,18.03
2018-12-25T19:29:00.949Z,18.30
2018-12-25T19:31:30.093Z,16.03
2018-12-25T19:33:58.945Z,17.90
2018-12-25T19:36:28.074Z,17.60
2018-12-25T19:38:57.499Z,18.80
2018-12-25T19:41:26.606Z,17.77
2018-12-25T19:43:55.595Z,18.87
2018-12-25T19:46:24.549Z,16.00
2018-12-25T19:48:53.429Z,16.50
2018-12-25T19:51:22.964Z,18.20
2018-12-25T19:53:52.300Z,18.47
2018-12-25T19:56:21.162Z,14.77
2018-12-25T19:58:50.203Z,15.90
2018-12-25T20:01:19.422Z,14.30
2018-12-25T20:03:55.725Z,19.00
2018-12-25T20:06:56.642Z,14.67
2018-12-25T20:10:08.916Z,16.63
2018-12-25T20:13:13.094Z,14.37
2018-12-25T20:16:28.317Z,16.33
2018-12-25T20:19:38.498Z,17.93
2018-12-25T20:22:41.305Z,17.03
2018-12-25T20:25:51.736Z,15.77
2018-12-25T20:29:06.745Z,14.90
2018-12-25T20:32:06.658Z,16.23
2018-12-25T20:35:15.881Z,16.40
2018-12-25T20:38:11.936Z,16.83
2018-12-25T20:41:17.719Z,17.07
2018-12-25T20:44:22.718Z,17.33
2018-12-25T20:47:28.657Z,15.77
2018-12-25T20:50:50.901Z,18.87
2018-12-25T20:53:55.477Z,21.57
2018-12-25T20:57:13.174Z,19.10
2018-12-25T21:00:23.033Z,21.10
2018-12-25T21:03:35.892Z,23.97
2018-12-25T21:06:33.602Z,24.33
2018-12-25T21:09:51.845Z,22.33
2018-12-25T21:12:41.842Z,21.43
2018-12-25T21:15:37.763Z,17.80
2018-12-25T21:19:09.302Z,18.97
2018-12-25T21:22:24.398Z,18.23
2018-12-25T21:25:39.329Z,19.07
2018-12-25T21:28:06.781Z,18.07
2018-12-25T21:30:35.801Z,18.60
2018-12-25T21:33:04.912Z,16.63
2018-12-25T21:35:33.841Z,18.83
2018-12-25T21:38:02.771Z,18.33
2018-12-25T21:40:31.931Z,17.17
2018-12-25T21:43:01.040Z,14.97
2018-12-25T21:45:30.298Z,16.30
2018-12-25T21:47:59.353Z,18.30
2018-12-25T21:50:28.210Z,18.47
2018-12-25T21:52:57.422Z,18.63
2018-12-25T21:55:26.369Z,18.67
2018-12-25T21:57:55.366Z,16.80
2018-12-25T22:00:27.433Z,15.13
2018-12-25T22:02:56.593Z,17.57
2018-12-25T22:05:25.534Z,15.93
2018-12-25T22:07:54.304Z,14.93
2018-12-25T22:10:23.114Z,16.57
2018-12-25T22:12:51.897Z,18.17
2018-12-25T22:15:20.762Z,14.43
2018-12-25T22:17:49.721Z,14.63
2018-12-25T22:20:23.497Z,16.20
2018-12-25T22:22:52.268Z,17.37
2018-12-25T22:25:27.023Z,17.70
2018-12-25T22:27:51.925Z,16.73
2018-12-25T22:30:21.125Z,18.90
2018-12-25T22:32:49.910Z,17.80
2018-12-25T22:35:18.706Z,13.93
2018-12-25T22:37:47.478Z,17.70
2018-12-25T22:40:16.338Z,18.30
2018-12-25T22:42:45.109Z,18.03
2018-12-25T22:45:13.982Z,16.43
2018-12-25T22:47:43.069Z,15.57
2018-12-25T22:50:12.304Z,20.87
2018-12-25T22:52:41.084Z,17.60
2018-12-25T22:55:11.009Z,17.13
2018-12-25T22:57:40.169Z,14.10
2018-12-25T23:00:11.857Z,15.13
2018-12-25T23:02:40.727Z,16.70
2018-12-25T23:05:09.516Z,18.27
2018-12-25T23:07:38.386Z,15.53
2018-12-25T23:10:08.521Z,15.33
2018-12-25T23:12:37.370Z,19.00
2018-12-25T23:15:07.757Z,18.80
2018-12-25T23:17:36.649Z,15.10
2018-12-25T23:20:06.220Z,15.97
2018-12-25T23:22:35.224Z,17.93
2018-12-25T23:25:04.674Z,21.30
2018-12-25T23:27:33.693Z,19.70
2018-12-25T23:30:02.498Z,16.03
2018-12-25T23:32:31.261Z,16.93
2018-12-25T23:35:00.330Z,13.67
2018-12-25T23:37:29.154Z,13.57
2018-12-25T23:39:57.947Z,14.90
2018-12-25T23:42:26.724Z,18.30
2018-12-25T23:44:55.532Z,20.47
2018-12-25T23:47:24.303Z,19.40
2018-12-25T23:49:53.169Z,18.37
2018-12-25T23:52:21.945Z,14.77
2018-12-25T23:54:50.994Z,18.67
2018-12-25T23:57:20.408Z,15.27
2018-12-25T23:59:49.261Z,15.60
